Terminal Aerodrome Forecast
Issued by NWS Greer, SC

Home | Current Version | Previous Version | Text Only | Print | Product List | Glossary On
Versions: 1 2 3 4 5 6 7 8 9 10 11 12 13 14
000
FTUS42 KGSP 310500
TAFGSP
TAF
KGSP 310534Z 3106/0106 04003KT P6SM BKN070
     FM311100 04004KT P6SM VCSH BKN025
     FM311600 08005KT P6SM VCTS BKN045CB
     FM312300 06006KT P6SM VCTS OVC024CB=

USA.gov is the U.S. government's official web portal to all federal, state and local government web resources and services.